My webcam more information My webcam


Thunder radar more information blitzortung!


Rain radar more information rain snow radar


Visit our other weather sites:

Template documentation
and downloads

And another site


You find our weather info also at:

Weather Underground

AWEKAS

Citizen Weather Observer Program (CWOP)

HAMweather, WeatherForYou, PWS Weather


Nearby METAR Reports

   
KTAN - Taunton, Massachusetts, USA
Distance from station: W 5 mi
Updated: Dec 11 2018 8:52 am
Clear  
Clear  
   Wind: Calm
Wind: Calm
Temperature: 21.2°F
Dew Point: 17.6°F
Humidity: 86%
Barometer: 30.18 inHg
Clouds: Clear
Visibility: 10 mi
Cloud details: Clear
KTAN 111352Z AUTO 00000KT 10SM CLR M06/M08 A3018 RMK AO2 SLP219 I1000 T10561083
KPYM - Plymouth, Massachusetts, USA
Distance from station: ENE 10 mi
Updated: Dec 11 2018 8:52 am
Clear  
Clear  
   Wind: NNW 3.5 mph
Wind: NNW 3.5 mph
Temperature: 26.6°F
Wind Chill: 23°F
Dew Point: 15.8°F
Humidity: 64%
Barometer: 30.18 inHg
Clouds: Clear
Visibility: 10 mi
Cloud details: Clear
KPYM 111352Z AUTO 34003KT 10SM CLR M03/M09 A3018 RMK AO2 SLP222 T10281089
KEWB - New Bedford, Massachusetts, USA
Distance from station: S 14 mi
Updated: Dec 11 2018 8:53 am
Clear  
Clear  
   Wind: North 4.6 mph
Wind: North 4.6 mph
Temperature: 24.8°F
Wind Chill: 19.4°F
Dew Point: 15.8°F
Humidity: 69%
Barometer: 30.18 inHg
Clouds: Clear
Visibility: 10 mi
Cloud details: Clear
KEWB 111353Z 01004KT 10SM CLR M04/M09 A3018 RMK AO2 SLP219 T10391089
KFMH - Falmouth/Otis Ab, Massachusetts, USA
Distance from station: SE 27 mi
Updated: Dec 11 2018 9:15 am
Clear  
Clear  
   Wind: varies 3.5 mph
Wind: varies 3.5 mph
Temperature: 30.2°F
Wind Chill: 26.6°F
Dew Point: 19.4°F
Humidity: 64%
Barometer: 30.17 inHg
Clouds: Clear
Visibility: 10 mi
Cloud details: Clear
KFMH 111415Z VRB03KT 10SM CLR M01/M07 A3017 RMK AO2
KBOS - Boston, Massachusetts, USA
Distance from station: N 33 mi
Updated: Dec 11 2018 8:54 am
Few Clouds  
Few Clouds  
   Wind: North 3.5 mph
Wind: North 3.5 mph
Temperature: 28.4°F
Wind Chill: 24.8°F
Dew Point: 10.4°F
Humidity: 47%
Barometer: 30.19 inHg
Clouds: Few Clouds
Visibility: 9 mi
Cloud details: Few Clouds 5000 ft,
Few Clouds 20000 ft
KBOS 111354Z 35003KT 9SM FEW050 FEW200 M02/M12 A3019 RMK AO2 SLP222 T10171122
KHYA - Hyannis, Massachusetts, USA
Distance from station: ESE 37 mi
Updated: Dec 11 2018 8:56 am
Clear  
Clear  
   Wind: North 4.6 mph
Wind: North 4.6 mph
Temperature: 33.8°F
Wind Chill: 30.2°F
Dew Point: 26.6°F
Humidity: 75%
Barometer: 30.16 inHg
Clouds: Clear
Visibility: 10 mi
Cloud details: Clear
KHYA 111356Z 35004KT 10SM CLR 01/M03 A3016 RMK AO2 SLP216 T00111028
KMVY - Marthas Vineyard, Massachusetts, USA
Distance from station: SSE 37 mi
Updated: Dec 11 2018 8:53 am
Clear  
Clear  
   Wind: North 4.6 mph
Wind: North 4.6 mph
Temperature: 30.2°F
Wind Chill: 24.8°F
Dew Point: 24.8°F
Humidity: 80%
Barometer: 30.17 inHg
Clouds: Clear
Visibility: 10 mi
Cloud details: Clear
KMVY 111353Z 01004KT 10SM CLR M01/M04 A3017 RMK AO2 SLP218 T10061044
KCQX - Chatham, Massachusetts, USA
Distance from station: ESE 49 mi
Updated: Dec 11 2018 8:52 am
Clear  
Clear  
   Wind: Calm
Wind: Calm
Temperature: 35.6°F
Dew Point: 26.6°F
Humidity: 70%
Barometer: 30.19 inHg
Clouds: Clear
Visibility: 10 mi
Cloud details: Clear
KCQX 111352Z AUTO 00000KT 10SM CLR 02/M03 A3019 RMK AO2 SLP224 T00221028
 

Script developed by  Saratoga-weather.org Adapted for the template by  Weerstation Leuven

Equipment we use:

Weather-station
Davis Vantage Vue

Weather-program
Meteobridge

Weather-server
TP-LINK TL-MR3020

Provider
Web Hosting By

Davis Vantage Vue

Meteobridge

TP-LINK TL-MR3020

Web Hosting By